Ontario, OR

2:01 PM MST on November 27, 2014 (GMT -0700)
Boise Air Term | Change Station
CLOSE
Current Station
Airport
Location: Boise,
Elevation: 2867 ft
Nearby Weather Stations

Elev 2867 ft 43.57 °N, 116.24 °W | Updated 8 minutes ago

Rain
Rain
53 °F
Feels Like 53 °F
N
12
Wind Variable Wind from East

Today
High -- | Low -- °F
--% Chance of Precip.
Yesterday
High -- | Low -- °F
Precip. -- in
7:58 AM 5:12 PM
Waxing Crescent, 33% visible
Pressure 30.09 in
Visibility 10.0 miles
Clouds Scattered Clouds 11000 ft
Dew Point 44 °F
Humidity 71%
Rainfall 0.01 in
Snow Depth Not available.
UV 1 out of 12
Pollen 1.10 out of 12
Air Quality Not available.
Flu Activity Not available.
METAR KBOI 272053Z 08010KT 10SM SCT110 12/07 A3009 RMK AO2 RAE30 SLP189 P0001 60001 T01170067 58013

More Conditions Fewer Conditions

Pressure 30.09 in
Visibility 10.0 miles
Clouds Scattered Clouds 11000 ft
Dew Point 44 °F
Humidity 71%
Rainfall 0.01 in
Snow Depth Not available.
UV 1 out of 12
Pollen 1.10 out of 12
Air Quality Not available.
Flu Activity Not available.
METAR KBOI 272053Z 08010KT 10SM SCT110 12/07 A3009 RMK AO2 RAE30 SLP189 P0001 60001 T01170067 58013

More Conditions Fewer Conditions

10-Day Weather Forecast

Almanac

Astronomy

Nov. 27, 2014 Rise Set
Actual Time
Civil Twilight
Nautical Twilight
Astronomical Twilight
Moon
Length of Visible Light
Length of Day
Tomorrow will be .
, % of the Moon is Illuminated

Today's Extremes

State Highs State Lows

Community

WunderPhotos

Upload Photos

1,774,104 photos uploaded!

WunderBlogs® & News

Nearby

Air Quality

  Air Quality AQ Index Pollutant
Not available.

Snow Depth

Station Depth Elevation

Earthquake Activity

City Distance Mag. Time & Date
Minimum magnitude displayed is 2.5.

Coastal Water Temperatures

Place Temperature

Nearby Weather Stations